This is the latest recevied weather packets stored in our database for station/object WX6HNX-5. If no packets are shown the sender has not sent any weather packets the latest 1 day(s).
| Time | Temp. | Humidity | Pressure | Rain* | Wind** | Luminosity | Snow |
|---|---|---|---|---|---|---|---|
| 1778090283 | 21.11° C | 57% | 1019.2 hPa | 0 mm | - | - | - |
| 1778089983 | 20.56° C | 59% | 1019.2 hPa | 0 mm | - | - | - |
| 1778088483 | 19.44° C | 63% | 1019.4 hPa | 0 mm | - | - | - |
| 1778088090 | 18.89° C | 64% | 1019.5 hPa | 0 mm | - | - | - |
| 1778086890 | 18.33° C | 67% | 1019.5 hPa | 0 mm | - | - | - |
| 1778086590 | 18.33° C | 67% | 1019.6 hPa | 0 mm | - | - | - |
| 1778086290 | 17.78° C | 68% | 1019.6 hPa | 0 mm | - | - | - |
| 1778085690 | 17.78° C | 70% | 1019.6 hPa | 0 mm | - | - | - |
| 1778085390 | 17.22° C | 71% | 1019.6 hPa | 0 mm | - | - | - |
| 1778084790 | 17.22° C | 70% | 1019.7 hPa | 0 mm | - | - | - |
| 1778084490 | 17.22° C | 71% | 1019.7 hPa | 0 mm | - | - | - |
| 1778083890 | 16.67° C | 72% | 1019.8 hPa | 0 mm | - | - | - |
| 1778083290 | 16.11° C | 72% | 1019.8 hPa | 0 mm | - | - | - |
| 1778082990 | 16.11° C | 73% | 1019.8 hPa | 0 mm | - | - | - |
| 1778082690 | 16.11° C | 73% | 1019.8 hPa | 0 mm | - | - | - |
| 1778082090 | 16.11° C | 73% | 1019.7 hPa | 0 mm | - | - | - |
| 1778081490 | 15.56° C | 75% | 1019.7 hPa | 0 mm | - | - | - |
| 1778081190 | 15° C | 75% | 1019.7 hPa | 0 mm | - | - | - |
| 1778080890 | 15° C | 76% | 1019.8 hPa | 0 mm | - | - | - |
| 1778080592 | 15° C | 76% | 1019.8 hPa | 0 mm | - | - | - |
| 1778080290 | 14.44° C | 77% | 1019.9 hPa | 0 mm | - | - | - |
| 1778079990 | 14.44° C | 77% | 1019.8 hPa | 0 mm | - | - | - |
| 1778079690 | 14.44° C | 76% | 1019.8 hPa | 0 mm | - | - | - |
| 1778079390 | 14.44° C | 76% | 1019.8 hPa | 0 mm | - | - | - |
| 1778078983 | 14.44° C | 78% | 1019.8 hPa | 0 mm | - | - | - |
* Rain latest hour (hover to see other rain measurements)
** Current wind speed in m/s (hover to see current wind gust speed)